createdAt,value
2019-03-01T00:01:30.202Z,73.40
2019-03-01T00:04:16.202Z,72.40
2019-03-01T00:07:12.427Z,72.20
2019-03-01T00:09:52.391Z,72.20
2019-03-01T00:13:06.490Z,72.70
2019-03-01T00:15:52.054Z,76.40
2019-03-01T00:18:59.458Z,78.40
2019-03-01T00:21:58.188Z,77.80
2019-03-01T00:24:48.419Z,81.20
2019-03-01T00:27:43.696Z,82.60
2019-03-01T00:30:49.495Z,86.10
2019-03-01T00:33:41.285Z,88.10
2019-03-01T00:36:47.367Z,86.90
2019-03-01T00:40:02.654Z,86.30
2019-03-01T00:42:44.755Z,88.30
2019-03-01T00:45:12.936Z,88.30
2019-03-01T00:47:41.264Z,89.50
2019-03-01T00:50:09.849Z,90.50
2019-03-01T00:52:38.070Z,90.40
2019-03-01T00:55:06.464Z,90.30
2019-03-01T00:57:34.810Z,88.30
2019-03-01T01:00:04.264Z,89.20
2019-03-01T01:02:32.476Z,88.10
2019-03-01T01:05:00.613Z,89.10
2019-03-01T01:07:28.960Z,90.10
2019-03-01T01:09:57.218Z,89.10
2019-03-01T01:12:25.499Z,88.30
2019-03-01T01:14:53.872Z,86.60
2019-03-01T01:17:22.210Z,88.50
2019-03-01T01:19:50.391Z,90.10
2019-03-01T01:22:18.515Z,89.10
2019-03-01T01:24:46.838Z,89.40
2019-03-01T01:27:15.228Z,88.40
2019-03-01T01:29:43.316Z,87.70
2019-03-01T01:32:11.534Z,88.10
2019-03-01T01:34:39.614Z,87.30
2019-03-01T01:37:07.627Z,87.20
2019-03-01T01:39:35.690Z,88.10
2019-03-01T01:42:04.523Z,88.10
2019-03-01T01:44:32.664Z,89.30
2019-03-01T01:47:00.878Z,88.60
2019-03-01T01:49:30.057Z,89.60
2019-03-01T01:51:58.215Z,90.50
2019-03-01T01:54:26.527Z,90.60
2019-03-01T01:56:54.767Z,92.10
2019-03-01T01:59:22.842Z,93.00
2019-03-01T02:01:51.210Z,92.90
2019-03-01T02:04:19.494Z,93.60
2019-03-01T02:06:47.699Z,93.30
2019-03-01T02:09:24.380Z,93.20
2019-03-01T02:11:53.135Z,93.20
2019-03-01T02:14:21.336Z,93.60
2019-03-01T02:16:49.549Z,93.00
2019-03-01T02:19:17.802Z,92.60
2019-03-01T02:21:46.026Z,93.00
2019-03-01T02:24:14.646Z,94.10
2019-03-01T02:26:42.864Z,94.40
2019-03-01T02:29:11.155Z,94.20
2019-03-01T02:31:46.672Z,94.40
2019-03-01T02:34:13.905Z,94.60
2019-03-01T02:36:41.108Z,95.10
2019-03-01T02:39:08.512Z,95.40
2019-03-01T02:41:35.672Z,95.50
2019-03-01T02:44:02.879Z,95.70
2019-03-01T02:46:31.336Z,95.80
2019-03-01T02:49:12.756Z,96.30
2019-03-01T02:51:39.724Z,96.50
2019-03-01T02:54:06.962Z,96.30
2019-03-01T02:56:34.135Z,96.30
2019-03-01T02:59:01.122Z,96.50
2019-03-01T03:01:28.697Z,96.00
2019-03-01T03:03:56.103Z,95.90
2019-03-01T03:06:34.867Z,95.30
2019-03-01T03:09:02.868Z,94.20
2019-03-01T03:11:30.086Z,95.00
2019-03-01T03:13:58.159Z,95.80
2019-03-01T03:16:26.500Z,96.50
2019-03-01T03:18:54.782Z,96.90
2019-03-01T03:21:23.054Z,97.90
2019-03-01T03:23:51.418Z,98.10
2019-03-01T03:26:19.701Z,97.80
2019-03-01T03:28:47.918Z,97.60
2019-03-01T03:31:16.361Z,97.30
2019-03-01T03:33:43.925Z,97.70
2019-03-01T03:36:12.422Z,97.40
2019-03-01T03:38:39.486Z,97.50
2019-03-01T03:41:07.932Z,97.90
2019-03-01T03:43:36.556Z,97.60
2019-03-01T03:46:03.848Z,97.20
2019-03-01T03:48:32.216Z,97.90
2019-03-01T03:51:00.403Z,98.10
2019-03-01T03:53:28.847Z,97.80
2019-03-01T03:55:57.075Z,98.50
2019-03-01T03:58:25.548Z,98.40
2019-03-01T04:00:54.000Z,98.40
2019-03-01T04:03:21.296Z,98.40
2019-03-01T04:05:49.583Z,98.30
2019-03-01T04:08:17.771Z,98.50
2019-03-01T04:10:46.036Z,98.20
2019-03-01T04:13:16.529Z,97.70
2019-03-01T04:15:44.209Z,97.80
2019-03-01T04:18:12.646Z,98.60
2019-03-01T04:20:40.935Z,98.60
2019-03-01T04:23:09.149Z,98.80
2019-03-01T04:25:37.367Z,98.80
2019-03-01T04:28:05.705Z,99.10
2019-03-01T04:30:34.200Z,99.30
2019-03-01T04:33:01.483Z,99.60
2019-03-01T04:35:29.741Z,99.90
2019-03-01T04:37:57.936Z,99.90
2019-03-01T04:40:26.011Z,99.90
2019-03-01T04:42:54.420Z,99.30
2019-03-01T04:45:21.626Z,99.30
2019-03-01T04:47:49.882Z,98.70
2019-03-01T04:50:18.119Z,99.10
2019-03-01T04:52:46.495Z,99.00
2019-03-01T04:55:17.320Z,98.90
2019-03-01T04:57:45.491Z,99.90
2019-03-01T05:00:18.487Z,99.90
2019-03-01T05:02:45.866Z,99.90
2019-03-01T05:05:14.017Z,99.90
2019-03-01T05:07:42.363Z,99.90
2019-03-01T05:10:10.492Z,99.90
2019-03-01T05:12:39.031Z,99.90
2019-03-01T05:15:09.230Z,99.90
2019-03-01T05:17:36.434Z,99.90
2019-03-01T05:20:04.705Z,99.80
2019-03-01T05:22:33.174Z,99.90
2019-03-01T05:25:02.020Z,99.50
2019-03-01T05:27:29.302Z,99.90
2019-03-01T05:29:58.052Z,99.90
2019-03-01T05:32:26.755Z,99.90
2019-03-01T05:34:55.879Z,99.50
2019-03-01T05:37:23.166Z,99.20
2019-03-01T05:39:52.239Z,98.20
2019-03-01T05:42:20.867Z,97.90
2019-03-01T05:44:49.701Z,98.20
2019-03-01T05:47:18.444Z,98.50
2019-03-01T05:49:47.347Z,98.70
2019-03-01T05:52:15.865Z,99.40
2019-03-01T05:54:44.067Z,99.50
2019-03-01T05:57:12.884Z,99.60
2019-03-01T05:59:41.765Z,99.40
2019-03-01T06:02:54.716Z,99.40
2019-03-01T06:05:29.038Z,99.50
2019-03-01T06:08:31.219Z,98.90
2019-03-01T06:11:11.154Z,98.60
2019-03-01T06:14:06.868Z,99.00
2019-03-01T06:16:59.843Z,99.40
2019-03-01T06:19:58.994Z,99.40
2019-03-01T06:22:55.575Z,99.40
2019-03-01T06:25:57.858Z,99.80
2019-03-01T06:29:06.151Z,99.40
2019-03-01T06:32:15.093Z,99.40
2019-03-01T06:35:11.463Z,99.30
2019-03-01T06:38:08.545Z,99.40
2019-03-01T06:41:22.570Z,99.70
2019-03-01T06:44:38.814Z,99.50
2019-03-01T06:47:40.675Z,99.90
2019-03-01T06:50:15.112Z,99.90
2019-03-01T06:52:43.340Z,99.90
2019-03-01T06:55:34.859Z,99.90
2019-03-01T06:58:03.492Z,99.90
2019-03-01T07:00:35.556Z,99.90
2019-03-01T07:03:04.113Z,99.90
2019-03-01T07:05:32.583Z,99.90
2019-03-01T07:08:00.907Z,99.90
2019-03-01T07:10:29.333Z,99.90
2019-03-01T07:12:57.429Z,99.90
2019-03-01T07:15:25.867Z,99.90
2019-03-01T07:17:57.624Z,99.90
2019-03-01T07:20:25.030Z,99.90
2019-03-01T07:22:53.474Z,99.90
2019-03-01T07:25:21.730Z,99.90
2019-03-01T07:27:50.419Z,99.90
2019-03-01T07:30:18.584Z,99.90
2019-03-01T07:32:45.751Z,99.90
2019-03-01T07:35:14.203Z,99.90
2019-03-01T07:37:42.658Z,99.90
2019-03-01T07:40:11.550Z,99.90
2019-03-01T07:42:40.338Z,99.90
2019-03-01T07:45:08.289Z,99.80
2019-03-01T07:47:36.809Z,99.80
2019-03-01T07:50:05.631Z,99.90
2019-03-01T07:52:34.018Z,99.90
2019-03-01T07:55:02.643Z,99.90
2019-03-01T07:57:31.615Z,99.90
2019-03-01T08:00:01.036Z,99.90
2019-03-01T08:02:29.458Z,99.90
2019-03-01T08:05:00.011Z,99.90
2019-03-01T08:07:28.515Z,99.90
2019-03-01T08:09:56.943Z,99.90
2019-03-01T08:12:25.011Z,99.90
2019-03-01T08:14:53.754Z,99.90
2019-03-01T08:17:21.131Z,99.90
2019-03-01T08:19:49.142Z,99.90
2019-03-01T08:22:20.874Z,99.90
2019-03-01T08:24:47.515Z,99.70
2019-03-01T08:27:15.853Z,99.50
2019-03-01T08:29:44.227Z,99.70
2019-03-01T08:32:12.597Z,99.80
2019-03-01T08:34:40.819Z,99.70
2019-03-01T08:37:08.927Z,99.70
2019-03-01T08:39:39.747Z,99.90
2019-03-01T08:42:07.510Z,99.80
2019-03-01T08:44:36.586Z,99.90
2019-03-01T08:47:05.357Z,99.90
2019-03-01T08:49:33.825Z,99.90
2019-03-01T08:52:02.412Z,99.90
2019-03-01T08:54:31.240Z,99.90
2019-03-01T08:57:00.614Z,99.90
2019-03-01T08:59:28.591Z,99.90
2019-03-01T09:01:56.912Z,99.90
2019-03-01T09:04:25.354Z,99.90
2019-03-01T09:06:53.862Z,99.90
2019-03-01T09:09:22.703Z,99.90
2019-03-01T09:11:51.401Z,99.90
2019-03-01T09:14:18.940Z,99.90
2019-03-01T09:16:47.537Z,99.90
2019-03-01T09:19:15.750Z,99.90
2019-03-01T09:21:49.935Z,99.90
2019-03-01T09:24:15.136Z,99.90
2019-03-01T09:26:43.926Z,99.90
2019-03-01T09:29:12.959Z,99.90
2019-03-01T09:31:42.375Z,99.90
2019-03-01T09:34:11.018Z,99.90
2019-03-01T09:36:45.442Z,99.90
2019-03-01T09:39:14.415Z,99.90
2019-03-01T09:41:42.278Z,99.90
2019-03-01T09:44:09.744Z,99.90
2019-03-01T09:46:38.327Z,99.90
2019-03-01T09:49:06.407Z,99.90
2019-03-01T09:51:35.303Z,99.90
2019-03-01T09:54:06.527Z,99.90
2019-03-01T09:56:33.795Z,99.90
2019-03-01T09:59:02.128Z,99.90
2019-03-01T10:01:30.394Z,99.90
2019-03-01T10:03:59.538Z,99.90
2019-03-01T10:06:37.624Z,99.90
2019-03-01T10:08:58.849Z,99.90
2019-03-01T10:11:28.259Z,99.90
2019-03-01T10:13:55.810Z,99.90
2019-03-01T10:16:23.155Z,99.90
2019-03-01T10:18:51.690Z,99.90
2019-03-01T10:21:20.462Z,99.90
2019-03-01T10:23:49.636Z,99.90
2019-03-01T10:26:18.531Z,99.90
2019-03-01T10:28:45.768Z,99.90
2019-03-01T10:31:14.792Z,99.90
2019-03-01T10:33:43.662Z,99.90
2019-03-01T10:36:12.423Z,99.90
2019-03-01T10:38:40.028Z,99.90
2019-03-01T10:41:08.502Z,99.90
2019-03-01T10:43:36.719Z,99.90
2019-03-01T10:46:05.306Z,99.90
2019-03-01T10:48:34.161Z,99.90
2019-03-01T10:51:01.933Z,99.90
2019-03-01T10:53:30.203Z,99.90
2019-03-01T10:55:58.420Z,99.90
2019-03-01T10:58:26.842Z,99.90
2019-03-01T11:00:55.463Z,99.90
2019-03-01T11:03:23.742Z,99.90
2019-03-01T11:05:52.976Z,99.90
2019-03-01T11:08:21.519Z,99.90
2019-03-01T11:10:50.073Z,99.90
2019-03-01T11:13:17.375Z,99.90
2019-03-01T11:15:46.212Z,99.90
2019-03-01T11:18:14.596Z,99.90
2019-03-01T11:20:43.156Z,99.90
2019-03-01T11:23:13.808Z,99.90
2019-03-01T11:25:43.013Z,99.90
2019-03-01T11:28:11.237Z,99.90
2019-03-01T11:30:40.484Z,99.90
2019-03-01T11:33:09.071Z,99.90
2019-03-01T11:35:37.648Z,99.90
2019-03-01T11:38:06.062Z,99.90
2019-03-01T11:40:35.039Z,99.90
2019-03-01T11:43:04.114Z,99.90
2019-03-01T11:45:33.239Z,99.90
2019-03-01T11:48:00.836Z,99.90
2019-03-01T11:50:29.186Z,99.90
2019-03-01T11:52:57.406Z,99.90
2019-03-01T11:55:25.954Z,99.90
2019-03-01T11:57:54.389Z,99.90
2019-03-01T12:00:22.841Z,99.90
2019-03-01T12:02:51.442Z,99.90
2019-03-01T12:05:20.282Z,99.90
2019-03-01T12:07:49.241Z,99.90
2019-03-01T12:10:21.181Z,99.90
2019-03-01T12:12:49.748Z,99.90
2019-03-01T12:15:18.462Z,99.90
2019-03-01T12:17:47.058Z,99.90
2019-03-01T12:20:16.048Z,99.90
2019-03-01T12:22:44.513Z,99.90
2019-03-01T12:25:13.111Z,99.90
2019-03-01T12:27:41.658Z,99.90
2019-03-01T12:30:13.389Z,99.90
2019-03-01T12:32:40.810Z,99.90
2019-03-01T12:35:09.393Z,99.90
2019-03-01T12:37:36.715Z,99.90
2019-03-01T12:40:06.451Z,99.90
2019-03-01T12:42:34.623Z,99.90
2019-03-01T12:45:02.969Z,99.90
2019-03-01T12:47:31.188Z,99.90
2019-03-01T12:50:00.090Z,99.90
2019-03-01T12:52:28.647Z,99.90
2019-03-01T12:54:57.361Z,99.90
2019-03-01T12:57:24.589Z,99.90
2019-03-01T12:59:52.987Z,99.90
2019-03-01T13:02:21.179Z,99.90
2019-03-01T13:04:49.892Z,99.90
2019-03-01T13:07:19.763Z,99.90
2019-03-01T13:09:47.839Z,99.90
2019-03-01T13:12:16.286Z,99.90
2019-03-01T13:14:43.565Z,99.90
2019-03-01T13:17:11.728Z,99.90
2019-03-01T13:19:39.911Z,99.90
2019-03-01T13:22:08.118Z,99.90
2019-03-01T13:24:36.335Z,99.90
2019-03-01T13:27:04.612Z,99.90
2019-03-01T13:29:32.953Z,99.90
2019-03-01T13:32:00.006Z,99.90
2019-03-01T13:34:28.172Z,99.90
2019-03-01T13:36:56.462Z,99.90
2019-03-01T13:39:24.878Z,99.90
2019-03-01T13:41:53.069Z,99.90
2019-03-01T13:44:21.282Z,99.90
2019-03-01T13:46:49.566Z,99.90
2019-03-01T13:49:17.795Z,99.90
2019-03-01T13:51:49.496Z,99.90
2019-03-01T13:54:15.787Z,99.90
2019-03-01T13:56:43.390Z,99.90
2019-03-01T13:59:11.466Z,99.90
2019-03-01T14:01:40.106Z,99.90
2019-03-01T14:04:09.521Z,99.90
2019-03-01T14:06:38.113Z,99.90
2019-03-01T14:09:11.683Z,99.90
2019-03-01T14:11:40.152Z,99.90
2019-03-01T14:14:09.164Z,99.90
2019-03-01T14:16:36.713Z,99.90
2019-03-01T14:19:05.197Z,99.90
2019-03-01T14:21:33.925Z,99.90
2019-03-01T14:24:02.472Z,99.90
2019-03-01T14:26:31.144Z,99.90
2019-03-01T14:28:59.638Z,99.90
2019-03-01T14:31:28.147Z,99.90
2019-03-01T14:33:57.107Z,99.90
2019-03-01T14:36:25.531Z,99.90
2019-03-01T14:38:54.176Z,99.90
2019-03-01T14:41:22.742Z,99.90
2019-03-01T14:43:50.419Z,99.90
2019-03-01T14:46:20.720Z,99.90
2019-03-01T14:48:48.902Z,99.90
2019-03-01T14:51:18.006Z,99.90
2019-03-01T14:53:45.873Z,99.90
2019-03-01T14:56:21.381Z,99.90
2019-03-01T14:58:58.874Z,99.90
2019-03-01T15:02:14.714Z,99.90
2019-03-01T15:04:42.901Z,99.90
2019-03-01T15:07:11.368Z,99.90
2019-03-01T15:09:39.942Z,99.90
2019-03-01T15:12:08.529Z,99.90
2019-03-01T15:14:37.110Z,99.90
2019-03-01T15:17:05.798Z,99.90
2019-03-01T15:19:33.977Z,99.90
2019-03-01T15:22:03.860Z,99.90
2019-03-01T15:24:33.273Z,99.90
2019-03-01T15:27:04.252Z,99.90
2019-03-01T15:29:32.181Z,99.90
2019-03-01T15:32:00.123Z,99.90
2019-03-01T15:34:27.279Z,99.90
2019-03-01T15:36:56.810Z,99.90
2019-03-01T15:39:25.744Z,99.90
2019-03-01T15:41:54.210Z,99.90
2019-03-01T15:44:25.757Z,99.90
2019-03-01T15:46:53.226Z,99.90
2019-03-01T15:49:23.737Z,99.90
2019-03-01T15:51:52.360Z,99.90
2019-03-01T15:54:20.193Z,99.90
2019-03-01T15:56:48.742Z,99.90
2019-03-01T15:59:16.926Z,99.90
2019-03-01T16:01:47.312Z,99.90
2019-03-01T16:04:15.623Z,99.90
2019-03-01T16:06:44.448Z,99.90
2019-03-01T16:09:16.096Z,99.90
2019-03-01T16:11:43.925Z,99.90
2019-03-01T16:14:12.774Z,99.90
2019-03-01T16:16:41.114Z,99.90
2019-03-01T16:19:13.842Z,99.90
2019-03-01T16:21:43.118Z,99.90
2019-03-01T16:24:11.615Z,99.90
2019-03-01T16:26:40.477Z,99.90
2019-03-01T16:29:08.093Z,99.90
2019-03-01T16:31:36.847Z,99.90
2019-03-01T16:34:05.338Z,99.90
2019-03-01T16:36:37.995Z,99.90
2019-03-01T16:39:10.854Z,99.90
2019-03-01T16:41:42.806Z,99.90
2019-03-01T16:44:11.210Z,99.90
2019-03-01T16:46:38.961Z,99.90
2019-03-01T16:49:06.842Z,99.90
2019-03-01T16:51:35.386Z,99.90
2019-03-01T16:54:02.882Z,99.90
2019-03-01T16:56:34.543Z,99.90
2019-03-01T16:59:03.736Z,99.90
2019-03-01T17:01:30.813Z,99.90
2019-03-01T17:03:59.158Z,99.90
2019-03-01T17:06:27.366Z,99.90
2019-03-01T17:08:55.673Z,99.90
2019-03-01T17:11:24.020Z,99.90
2019-03-01T17:13:52.842Z,99.90
2019-03-01T17:16:23.813Z,99.90
2019-03-01T17:18:52.478Z,99.90
2019-03-01T17:21:20.791Z,99.90
2019-03-01T17:23:48.965Z,99.90
2019-03-01T17:26:17.635Z,99.90
2019-03-01T17:28:45.885Z,99.90
2019-03-01T17:31:14.542Z,99.90
2019-03-01T17:33:45.235Z,99.90
2019-03-01T17:36:12.892Z,99.90
2019-03-01T17:38:45.884Z,99.90
2019-03-01T17:41:11.808Z,99.90
2019-03-01T17:43:40.896Z,99.90
2019-03-01T17:46:08.118Z,99.90
2019-03-01T17:48:36.233Z,99.90
2019-03-01T17:51:05.130Z,99.90
2019-03-01T17:53:34.523Z,99.90
2019-03-01T17:56:02.269Z,99.90
2019-03-01T17:58:30.593Z,99.90
2019-03-01T18:01:02.762Z,99.90
2019-03-01T18:03:30.429Z,99.90
2019-03-01T18:05:59.070Z,99.90
2019-03-01T18:08:27.064Z,99.90
2019-03-01T18:10:55.601Z,99.90
2019-03-01T18:13:24.263Z,99.90
2019-03-01T18:15:52.593Z,99.90
2019-03-01T18:18:24.782Z,99.90
2019-03-01T18:20:53.625Z,99.90
2019-03-01T18:23:22.430Z,99.90
2019-03-01T18:25:51.123Z,99.90
2019-03-01T18:28:19.106Z,99.90
2019-03-01T18:30:47.326Z,99.90
2019-03-01T18:33:16.882Z,99.90
2019-03-01T18:35:48.836Z,99.90
2019-03-01T18:38:16.501Z,99.90
2019-03-01T18:40:43.909Z,99.90
2019-03-01T18:43:13.812Z,99.90
2019-03-01T18:45:43.138Z,99.90
2019-03-01T18:48:16.129Z,99.90
2019-03-01T18:50:46.837Z,99.90
2019-03-01T18:53:14.256Z,99.90
2019-03-01T18:55:41.864Z,99.90
2019-03-01T18:58:10.569Z,99.90
2019-03-01T19:00:39.734Z,99.90
2019-03-01T19:03:07.235Z,99.90
2019-03-01T19:05:36.767Z,99.90
2019-03-01T19:08:06.107Z,99.90
2019-03-01T19:10:35.098Z,99.90
2019-03-01T19:13:03.895Z,99.90
2019-03-01T19:15:33.171Z,99.90
2019-03-01T19:18:01.732Z,99.90
2019-03-01T19:20:30.730Z,99.90
2019-03-01T19:22:58.734Z,99.90
2019-03-01T19:25:27.227Z,99.90
2019-03-01T19:27:55.707Z,99.90
2019-03-01T19:30:24.466Z,99.90
2019-03-01T19:32:52.966Z,99.90
2019-03-01T19:35:21.266Z,99.90
2019-03-01T19:37:50.803Z,99.90
2019-03-01T19:40:22.362Z,99.50
2019-03-01T19:42:49.613Z,99.50
2019-03-01T19:45:17.391Z,99.60
2019-03-01T19:47:44.695Z,99.60
2019-03-01T19:50:15.330Z,99.20
2019-03-01T19:52:47.052Z,99.50
2019-03-01T19:55:14.266Z,99.40
2019-03-01T19:57:42.637Z,98.80
2019-03-01T20:00:17.193Z,99.30
2019-03-01T20:02:46.431Z,98.50
2019-03-01T20:05:15.485Z,97.70
2019-03-01T20:07:44.787Z,97.50
2019-03-01T20:10:15.900Z,96.20
2019-03-01T20:12:44.702Z,96.10
2019-03-01T20:15:20.429Z,94.40
2019-03-01T20:17:48.112Z,92.70
2019-03-01T20:20:16.763Z,92.30
2019-03-01T20:22:45.664Z,91.70
2019-03-01T20:25:16.199Z,91.90
2019-03-01T20:27:45.571Z,92.60
2019-03-01T20:30:17.921Z,92.00
2019-03-01T20:32:47.483Z,91.50
2019-03-01T20:35:16.700Z,91.70
2019-03-01T20:37:45.521Z,91.50
2019-03-01T20:40:14.372Z,91.60
2019-03-01T20:42:42.547Z,90.90
2019-03-01T20:45:13.904Z,90.80
2019-03-01T20:47:44.837Z,90.40
2019-03-01T20:50:15.682Z,90.10
2019-03-01T20:52:44.531Z,90.70
2019-03-01T20:55:13.479Z,90.60
2019-03-01T20:57:40.792Z,90.70
2019-03-01T21:00:11.863Z,90.00
2019-03-01T21:02:40.401Z,89.20
2019-03-01T21:05:09.740Z,89.00
2019-03-01T21:07:38.419Z,88.40
2019-03-01T21:10:16.035Z,87.50
2019-03-01T21:12:44.167Z,85.40
2019-03-01T21:15:11.874Z,85.90
2019-03-01T21:17:39.310Z,86.90
2019-03-01T21:20:08.559Z,86.80
2019-03-01T21:22:39.703Z,87.30
2019-03-01T21:25:08.567Z,88.00
2019-03-01T21:27:37.277Z,87.40
2019-03-01T21:30:10.669Z,86.80
2019-03-01T21:32:39.384Z,86.20
2019-03-01T21:35:10.443Z,86.10
2019-03-01T21:37:39.424Z,85.20
2019-03-01T21:40:08.743Z,84.60
2019-03-01T21:42:37.199Z,83.80
2019-03-01T21:45:07.234Z,84.10
2019-03-01T21:47:34.815Z,82.70
2019-03-01T21:50:04.278Z,83.40
2019-03-01T21:52:33.623Z,82.70
2019-03-01T21:55:02.446Z,82.70
2019-03-01T21:57:31.160Z,82.70
2019-03-01T22:00:00.723Z,82.60
2019-03-01T22:02:29.026Z,83.40
2019-03-01T22:04:57.450Z,83.60
2019-03-01T22:07:26.050Z,85.50
2019-03-01T22:09:56.735Z,89.00
2019-03-01T22:12:25.663Z,90.30
2019-03-01T22:14:54.748Z,91.60
2019-03-01T22:17:23.393Z,92.00
2019-03-01T22:19:52.230Z,92.00
2019-03-01T22:22:21.259Z,92.20
2019-03-01T22:24:50.365Z,93.10
2019-03-01T22:27:21.589Z,93.10
2019-03-01T22:29:49.595Z,93.40
2019-03-01T22:32:17.510Z,92.70
2019-03-01T22:34:46.199Z,92.70
2019-03-01T22:37:15.207Z,92.90
2019-03-01T22:39:43.389Z,92.30
2019-03-01T22:42:14.318Z,90.70
2019-03-01T22:44:43.791Z,90.40
2019-03-01T22:47:12.517Z,90.00
2019-03-01T22:49:41.282Z,88.10
2019-03-01T22:52:09.522Z,84.30
2019-03-01T22:54:37.795Z,81.40
2019-03-01T22:57:06.547Z,82.10
2019-03-01T22:59:35.518Z,81.70
2019-03-01T23:02:08.056Z,81.30
2019-03-01T23:04:36.251Z,80.90
2019-03-01T23:07:04.435Z,78.40
2019-03-01T23:09:33.742Z,77.20
2019-03-01T23:12:04.684Z,75.80
2019-03-01T23:14:32.647Z,75.80
2019-03-01T23:17:01.254Z,75.20
2019-03-01T23:19:29.776Z,74.20
2019-03-01T23:21:57.468Z,73.00
2019-03-01T23:24:26.390Z,73.00
2019-03-01T23:26:56.779Z,72.90
2019-03-01T23:29:25.598Z,71.60
2019-03-01T23:31:54.138Z,71.80
2019-03-01T23:34:23.058Z,73.00
2019-03-01T23:36:50.815Z,72.60
2019-03-01T23:39:21.622Z,72.30
2019-03-01T23:41:49.394Z,72.80
2019-03-01T23:44:17.679Z,71.90
2019-03-01T23:46:45.194Z,71.90
2019-03-01T23:49:13.529Z,71.10
2019-03-01T23:51:42.488Z,70.30
2019-03-01T23:54:11.987Z,71.10
2019-03-01T23:56:39.325Z,70.00
2019-03-01T23:59:07.499Z,69.30
